sensor_id;sensor_type;location;lat;lon;timestamp;P1;durP1;ratioP1;P2;durP2;ratioP2
42616;SDS011;28250;52.320;0.360;2023-04-15T00:00:57;2.27;;;1.90;;
42616;SDS011;28250;52.320;0.360;2023-04-15T00:03:23;2.70;;;1.73;;
42616;SDS011;28250;52.320;0.360;2023-04-15T00:05:49;3.22;;;1.77;;
42616;SDS011;28250;52.320;0.360;2023-04-15T00:08:16;2.33;;;1.48;;
42616;SDS011;28250;52.320;0.360;2023-04-15T00:10:42;1.98;;;1.65;;
42616;SDS011;28250;52.320;0.360;2023-04-15T00:13:10;3.38;;;1.50;;
42616;SDS011;28250;52.320;0.360;2023-04-15T00:15:36;1.98;;;1.83;;
42616;SDS011;28250;52.320;0.360;2023-04-15T00:18:03;1.75;;;1.45;;
42616;SDS011;28250;52.320;0.360;2023-04-15T00:20:29;2.00;;;1.80;;
42616;SDS011;28250;52.320;0.360;2023-04-15T00:22:56;1.63;;;1.30;;
42616;SDS011;28250;52.320;0.360;2023-04-15T00:25:35;1.95;;;1.60;;
42616;SDS011;28250;52.320;0.360;2023-04-15T00:28:10;2.17;;;1.50;;
42616;SDS011;28250;52.320;0.360;2023-04-15T00:30:44;1.70;;;1.25;;
42616;SDS011;28250;52.320;0.360;2023-04-15T00:33:13;1.38;;;1.27;;
42616;SDS011;28250;52.320;0.360;2023-04-15T00:35:43;2.85;;;1.50;;
42616;SDS011;28250;52.320;0.360;2023-04-15T00:38:09;1.30;;;1.20;;
42616;SDS011;28250;52.320;0.360;2023-04-15T00:40:39;1.63;;;1.48;;
42616;SDS011;28250;52.320;0.360;2023-04-15T00:43:07;1.48;;;1.38;;
42616;SDS011;28250;52.320;0.360;2023-04-15T00:45:33;2.72;;;1.30;;
42616;SDS011;28250;52.320;0.360;2023-04-15T00:48:00;1.30;;;1.20;;
42616;SDS011;28250;52.320;0.360;2023-04-15T00:50:27;1.70;;;1.55;;
42616;SDS011;28250;52.320;0.360;2023-04-15T00:52:54;2.17;;;1.65;;
42616;SDS011;28250;52.320;0.360;2023-04-15T00:55:26;2.40;;;1.98;;
42616;SDS011;28250;52.320;0.360;2023-04-15T00:57:55;2.88;;;1.63;;
42616;SDS011;28250;52.320;0.360;2023-04-15T01:00:24;2.20;;;1.67;;
42616;SDS011;28250;52.320;0.360;2023-04-15T01:02:53;2.55;;;2.20;;
42616;SDS011;28250;52.320;0.360;2023-04-15T01:05:22;1.60;;;1.45;;
42616;SDS011;28250;52.320;0.360;2023-04-15T01:08:13;3.22;;;2.33;;
42616;SDS011;28250;52.320;0.360;2023-04-15T01:10:45;2.53;;;2.10;;
42616;SDS011;28250;52.320;0.360;2023-04-15T01:13:15;2.85;;;1.98;;
42616;SDS011;28250;52.320;0.360;2023-04-15T01:15:46;2.55;;;1.95;;
42616;SDS011;28250;52.320;0.360;2023-04-15T01:18:14;1.98;;;1.70;;
42616;SDS011;28250;52.320;0.360;2023-04-15T01:20:42;2.38;;;2.17;;
42616;SDS011;28250;52.320;0.360;2023-04-15T01:23:08;2.58;;;2.03;;
42616;SDS011;28250;52.320;0.360;2023-04-15T01:25:34;4.82;;;2.13;;
42616;SDS011;28250;52.320;0.360;2023-04-15T01:28:01;3.70;;;2.93;;
42616;SDS011;28250;52.320;0.360;2023-04-15T01:30:28;3.23;;;2.63;;
42616;SDS011;28250;52.320;0.360;2023-04-15T01:32:54;4.78;;;3.35;;
42616;SDS011;28250;52.320;0.360;2023-04-15T01:35:38;4.07;;;3.40;;
42616;SDS011;28250;52.320;0.360;2023-04-15T01:38:05;5.38;;;3.67;;
42616;SDS011;28250;52.320;0.360;2023-04-15T01:40:33;6.90;;;3.90;;
42616;SDS011;28250;52.320;0.360;2023-04-15T01:43:01;8.45;;;4.05;;
42616;SDS011;28250;52.320;0.360;2023-04-15T01:45:29;4.72;;;4.00;;
42616;SDS011;28250;52.320;0.360;2023-04-15T01:47:56;7.28;;;3.47;;
42616;SDS011;28250;52.320;0.360;2023-04-15T01:50:23;5.68;;;4.00;;
42616;SDS011;28250;52.320;0.360;2023-04-15T01:52:52;5.55;;;3.88;;
42616;SDS011;28250;52.320;0.360;2023-04-15T01:55:19;5.25;;;4.20;;
42616;SDS011;28250;52.320;0.360;2023-04-15T01:57:47;7.88;;;4.20;;
42616;SDS011;28250;52.320;0.360;2023-04-15T02:00:14;10.68;;;4.75;;
42616;SDS011;28250;52.320;0.360;2023-04-15T02:02:42;6.03;;;4.30;;
42616;SDS011;28250;52.320;0.360;2023-04-15T02:05:10;10.88;;;6.82;;
42616;SDS011;28250;52.320;0.360;2023-04-15T02:07:37;10.18;;;6.15;;
42616;SDS011;28250;52.320;0.360;2023-04-15T02:10:04;10.95;;;6.50;;
42616;SDS011;28250;52.320;0.360;2023-04-15T02:12:35;9.00;;;6.93;;
42616;SDS011;28250;52.320;0.360;2023-04-15T02:15:02;10.57;;;6.13;;
42616;SDS011;28250;52.320;0.360;2023-04-15T02:17:33;7.95;;;5.55;;
42616;SDS011;28250;52.320;0.360;2023-04-15T02:20:01;9.50;;;6.13;;
42616;SDS011;28250;52.320;0.360;2023-04-15T02:22:31;9.75;;;5.90;;
42616;SDS011;28250;52.320;0.360;2023-04-15T02:24:59;10.05;;;5.90;;
42616;SDS011;28250;52.320;0.360;2023-04-15T02:27:26;12.52;;;6.85;;
42616;SDS011;28250;52.320;0.360;2023-04-15T02:29:54;12.15;;;5.97;;
42616;SDS011;28250;52.320;0.360;2023-04-15T02:34:49;10.23;;;5.85;;
42616;SDS011;28250;52.320;0.360;2023-04-15T02:37:17;7.43;;;5.57;;
42616;SDS011;28250;52.320;0.360;2023-04-15T02:39:45;11.63;;;7.22;;
42616;SDS011;28250;52.320;0.360;2023-04-15T02:42:13;10.88;;;6.55;;
42616;SDS011;28250;52.320;0.360;2023-04-15T02:44:40;9.30;;;6.40;;
42616;SDS011;28250;52.320;0.360;2023-04-15T02:47:07;11.27;;;7.30;;
42616;SDS011;28250;52.320;0.360;2023-04-15T02:49:36;11.60;;;6.85;;
42616;SDS011;28250;52.320;0.360;2023-04-15T02:52:05;13.55;;;7.30;;
42616;SDS011;28250;52.320;0.360;2023-04-15T02:54:32;12.82;;;6.80;;
42616;SDS011;28250;52.320;0.360;2023-04-15T02:57:00;11.95;;;7.68;;
42616;SDS011;28250;52.320;0.360;2023-04-15T03:01:55;9.05;;;6.88;;
42616;SDS011;28250;52.320;0.360;2023-04-15T03:04:29;13.93;;;7.10;;
42616;SDS011;28250;52.320;0.360;2023-04-15T03:07:01;13.10;;;7.00;;
42616;SDS011;28250;52.320;0.360;2023-04-15T03:09:28;14.13;;;8.25;;
42616;SDS011;28250;52.320;0.360;2023-04-15T03:11:56;12.23;;;7.03;;
42616;SDS011;28250;52.320;0.360;2023-04-15T03:16:51;15.45;;;7.40;;
42616;SDS011;28250;52.320;0.360;2023-04-15T03:19:18;11.63;;;7.43;;
42616;SDS011;28250;52.320;0.360;2023-04-15T03:21:46;13.63;;;7.95;;
42616;SDS011;28250;52.320;0.360;2023-04-15T03:24:13;11.40;;;7.32;;
42616;SDS011;28250;52.320;0.360;2023-04-15T03:26:41;14.70;;;7.75;;
42616;SDS011;28250;52.320;0.360;2023-04-15T03:29:12;11.68;;;7.55;;
42616;SDS011;28250;52.320;0.360;2023-04-15T03:31:40;13.95;;;7.53;;
42616;SDS011;28250;52.320;0.360;2023-04-15T03:34:07;11.25;;;6.97;;
42616;SDS011;28250;52.320;0.360;2023-04-15T03:36:35;11.60;;;7.40;;
42616;SDS011;28250;52.320;0.360;2023-04-15T03:39:02;14.50;;;8.05;;
42616;SDS011;28250;52.320;0.360;2023-04-15T03:41:30;12.65;;;7.68;;
42616;SDS011;28250;52.320;0.360;2023-04-15T03:43:58;16.35;;;7.63;;
42616;SDS011;28250;52.320;0.360;2023-04-15T03:46:25;13.32;;;7.85;;
42616;SDS011;28250;52.320;0.360;2023-04-15T03:48:53;12.18;;;7.28;;
42616;SDS011;28250;52.320;0.360;2023-04-15T03:51:20;14.77;;;7.03;;
42616;SDS011;28250;52.320;0.360;2023-04-15T03:53:47;12.75;;;7.65;;
42616;SDS011;28250;52.320;0.360;2023-04-15T03:56:14;14.60;;;7.05;;
42616;SDS011;28250;52.320;0.360;2023-04-15T03:58:42;11.77;;;7.32;;
42616;SDS011;28250;52.320;0.360;2023-04-15T04:01:09;16.00;;;7.50;;
42616;SDS011;28250;52.320;0.360;2023-04-15T04:03:37;13.80;;;6.70;;
42616;SDS011;28250;52.320;0.360;2023-04-15T04:06:04;11.27;;;7.03;;
42616;SDS011;28250;52.320;0.360;2023-04-15T04:08:31;10.10;;;6.38;;
42616;SDS011;28250;52.320;0.360;2023-04-15T04:10:58;10.80;;;6.78;;
42616;SDS011;28250;52.320;0.360;2023-04-15T04:13:26;12.35;;;6.90;;
42616;SDS011;28250;52.320;0.360;2023-04-15T04:15:53;12.77;;;7.53;;
42616;SDS011;28250;52.320;0.360;2023-04-15T04:18:20;10.68;;;6.15;;
42616;SDS011;28250;52.320;0.360;2023-04-15T04:20:48;12.10;;;6.03;;
42616;SDS011;28250;52.320;0.360;2023-04-15T04:23:15;12.48;;;6.63;;
42616;SDS011;28250;52.320;0.360;2023-04-15T04:25:42;13.73;;;6.22;;
42616;SDS011;28250;52.320;0.360;2023-04-15T04:28:09;13.60;;;6.88;;
42616;SDS011;28250;52.320;0.360;2023-04-15T04:30:37;11.75;;;7.07;;
42616;SDS011;28250;52.320;0.360;2023-04-15T04:33:04;11.57;;;6.38;;
42616;SDS011;28250;52.320;0.360;2023-04-15T04:35:32;10.68;;;6.05;;
42616;SDS011;28250;52.320;0.360;2023-04-15T04:38:03;9.57;;;5.82;;
42616;SDS011;28250;52.320;0.360;2023-04-15T04:42:57;8.88;;;5.80;;
42616;SDS011;28250;52.320;0.360;2023-04-15T04:45:24;9.35;;;5.90;;
42616;SDS011;28250;52.320;0.360;2023-04-15T04:47:52;12.98;;;6.38;;
42616;SDS011;28250;52.320;0.360;2023-04-15T04:50:19;10.77;;;6.25;;
42616;SDS011;28250;52.320;0.360;2023-04-15T04:52:47;13.80;;;6.78;;
42616;SDS011;28250;52.320;0.360;2023-04-15T04:55:14;12.20;;;6.35;;
42616;SDS011;28250;52.320;0.360;2023-04-15T04:57:41;12.60;;;6.05;;
42616;SDS011;28250;52.320;0.360;2023-04-15T05:00:09;9.27;;;5.97;;
42616;SDS011;28250;52.320;0.360;2023-04-15T05:02:36;8.73;;;5.50;;
42616;SDS011;28250;52.320;0.360;2023-04-15T05:05:04;12.60;;;6.75;;
42616;SDS011;28250;52.320;0.360;2023-04-15T05:07:32;12.80;;;6.45;;
42616;SDS011;28250;52.320;0.360;2023-04-15T05:09:59;11.25;;;5.47;;
42616;SDS011;28250;52.320;0.360;2023-04-15T05:12:27;11.32;;;6.65;;
42616;SDS011;28250;52.320;0.360;2023-04-15T05:14:54;10.25;;;6.10;;
42616;SDS011;28250;52.320;0.360;2023-04-15T05:17:21;12.93;;;6.25;;
42616;SDS011;28250;52.320;0.360;2023-04-15T05:19:48;10.55;;;6.45;;
42616;SDS011;28250;52.320;0.360;2023-04-15T05:22:16;8.75;;;5.85;;
42616;SDS011;28250;52.320;0.360;2023-04-15T05:24:43;11.35;;;6.30;;
42616;SDS011;28250;52.320;0.360;2023-04-15T05:27:10;12.80;;;5.95;;
42616;SDS011;28250;52.320;0.360;2023-04-15T05:29:37;13.20;;;6.38;;
42616;SDS011;28250;52.320;0.360;2023-04-15T05:32:05;11.38;;;5.90;;
42616;SDS011;28250;52.320;0.360;2023-04-15T05:36:59;8.18;;;4.90;;
42616;SDS011;28250;52.320;0.360;2023-04-15T05:39:26;10.13;;;5.53;;
42616;SDS011;28250;52.320;0.360;2023-04-15T05:41:54;18.92;;;7.47;;
42616;SDS011;28250;52.320;0.360;2023-04-15T05:44:21;7.90;;;4.82;;
42616;SDS011;28250;52.320;0.360;2023-04-15T05:46:48;9.40;;;5.30;;
42616;SDS011;28250;52.320;0.360;2023-04-15T05:49:15;10.13;;;4.82;;
42616;SDS011;28250;52.320;0.360;2023-04-15T05:51:43;8.52;;;5.20;;
42616;SDS011;28250;52.320;0.360;2023-04-15T05:54:10;9.18;;;5.28;;
42616;SDS011;28250;52.320;0.360;2023-04-15T05:56:37;11.27;;;5.55;;
42616;SDS011;28250;52.320;0.360;2023-04-15T05:59:07;7.55;;;5.10;;
42616;SDS011;28250;52.320;0.360;2023-04-15T06:01:34;7.70;;;4.45;;
42616;SDS011;28250;52.320;0.360;2023-04-15T06:04:01;10.07;;;4.60;;
42616;SDS011;28250;52.320;0.360;2023-04-15T06:06:28;8.00;;;4.45;;
42616;SDS011;28250;52.320;0.360;2023-04-15T06:08:56;7.53;;;4.30;;
42616;SDS011;28250;52.320;0.360;2023-04-15T06:13:52;5.53;;;3.83;;
42616;SDS011;28250;52.320;0.360;2023-04-15T06:16:19;7.50;;;3.70;;
42616;SDS011;28250;52.320;0.360;2023-04-15T06:18:46;6.57;;;4.05;;
42616;SDS011;28250;52.320;0.360;2023-04-15T06:21:14;9.80;;;4.32;;
42616;SDS011;28250;52.320;0.360;2023-04-15T06:23:41;6.70;;;4.05;;
42616;SDS011;28250;52.320;0.360;2023-04-15T06:26:09;6.63;;;4.00;;
42616;SDS011;28250;52.320;0.360;2023-04-15T06:28:37;9.05;;;4.35;;
42616;SDS011;28250;52.320;0.360;2023-04-15T06:31:04;11.32;;;3.92;;
42616;SDS011;28250;52.320;0.360;2023-04-15T06:33:31;8.75;;;3.45;;
42616;SDS011;28250;52.320;0.360;2023-04-15T06:35:59;6.60;;;3.83;;
42616;SDS011;28250;52.320;0.360;2023-04-15T06:38:26;10.20;;;4.00;;
42616;SDS011;28250;52.320;0.360;2023-04-15T06:40:53;6.40;;;3.78;;
42616;SDS011;28250;52.320;0.360;2023-04-15T06:43:20;4.97;;;3.33;;
42616;SDS011;28250;52.320;0.360;2023-04-15T06:45:48;10.52;;;4.40;;
42616;SDS011;28250;52.320;0.360;2023-04-15T06:48:15;11.07;;;4.28;;
42616;SDS011;28250;52.320;0.360;2023-04-15T06:50:43;9.35;;;4.50;;
42616;SDS011;28250;52.320;0.360;2023-04-15T06:53:10;11.73;;;4.45;;
42616;SDS011;28250;52.320;0.360;2023-04-15T06:55:37;7.88;;;3.88;;
42616;SDS011;28250;52.320;0.360;2023-04-15T06:58:06;5.78;;;4.18;;
42616;SDS011;28250;52.320;0.360;2023-04-15T07:00:33;9.48;;;4.57;;
42616;SDS011;28250;52.320;0.360;2023-04-15T07:03:01;9.43;;;3.97;;
42616;SDS011;28250;52.320;0.360;2023-04-15T07:05:29;6.95;;;4.30;;
42616;SDS011;28250;52.320;0.360;2023-04-15T07:07:57;9.30;;;4.82;;
42616;SDS011;28250;52.320;0.360;2023-04-15T07:10:25;14.20;;;5.05;;
42616;SDS011;28250;52.320;0.360;2023-04-15T07:12:52;8.15;;;4.38;;
42616;SDS011;28250;52.320;0.360;2023-04-15T07:15:19;9.73;;;4.53;;
42616;SDS011;28250;52.320;0.360;2023-04-15T07:17:47;11.60;;;4.75;;
42616;SDS011;28250;52.320;0.360;2023-04-15T07:20:15;13.27;;;4.55;;
42616;SDS011;28250;52.320;0.360;2023-04-15T07:22:42;10.02;;;4.57;;
42616;SDS011;28250;52.320;0.360;2023-04-15T07:25:09;11.05;;;4.95;;
42616;SDS011;28250;52.320;0.360;2023-04-15T07:27:36;16.25;;;6.53;;
42616;SDS011;28250;52.320;0.360;2023-04-15T07:30:05;17.92;;;6.95;;
42616;SDS011;28250;52.320;0.360;2023-04-15T07:32:33;10.02;;;4.78;;
42616;SDS011;28250;52.320;0.360;2023-04-15T07:35:00;10.70;;;4.88;;
42616;SDS011;28250;52.320;0.360;2023-04-15T07:37:29;14.10;;;5.25;;
42616;SDS011;28250;52.320;0.360;2023-04-15T07:39:56;10.60;;;5.07;;
42616;SDS011;28250;52.320;0.360;2023-04-15T07:42:23;12.45;;;4.55;;
42616;SDS011;28250;52.320;0.360;2023-04-15T07:44:50;8.35;;;4.40;;
42616;SDS011;28250;52.320;0.360;2023-04-15T07:47:18;12.00;;;6.28;;
42616;SDS011;28250;52.320;0.360;2023-04-15T07:49:45;9.85;;;4.70;;
42616;SDS011;28250;52.320;0.360;2023-04-15T07:52:12;11.45;;;4.63;;
42616;SDS011;28250;52.320;0.360;2023-04-15T07:54:39;7.18;;;4.97;;
42616;SDS011;28250;52.320;0.360;2023-04-15T07:57:07;10.65;;;4.85;;
42616;SDS011;28250;52.320;0.360;2023-04-15T07:59:34;10.48;;;4.43;;
42616;SDS011;28250;52.320;0.360;2023-04-15T08:02:01;11.95;;;5.32;;
42616;SDS011;28250;52.320;0.360;2023-04-15T08:06:56;11.18;;;4.68;;
42616;SDS011;28250;52.320;0.360;2023-04-15T08:09:23;9.13;;;4.68;;
42616;SDS011;28250;52.320;0.360;2023-04-15T08:11:52;12.05;;;5.38;;
42616;SDS011;28250;52.320;0.360;2023-04-15T08:14:19;9.38;;;4.47;;
42616;SDS011;28250;52.320;0.360;2023-04-15T08:16:47;11.93;;;4.90;;
42616;SDS011;28250;52.320;0.360;2023-04-15T08:19:14;13.30;;;4.45;;
42616;SDS011;28250;52.320;0.360;2023-04-15T08:21:41;10.68;;;4.25;;
42616;SDS011;28250;52.320;0.360;2023-04-15T08:24:08;7.53;;;4.07;;
42616;SDS011;28250;52.320;0.360;2023-04-15T08:26:37;8.20;;;5.00;;
42616;SDS011;28250;52.320;0.360;2023-04-15T08:29:04;8.82;;;3.92;;
42616;SDS011;28250;52.320;0.360;2023-04-15T08:31:31;8.57;;;4.00;;
42616;SDS011;28250;52.320;0.360;2023-04-15T08:33:58;8.95;;;3.97;;
42616;SDS011;28250;52.320;0.360;2023-04-15T08:36:25;6.82;;;4.13;;
42616;SDS011;28250;52.320;0.360;2023-04-15T08:38:53;10.60;;;3.95;;
42616;SDS011;28250;52.320;0.360;2023-04-15T08:41:21;6.32;;;3.67;;
42616;SDS011;28250;52.320;0.360;2023-04-15T08:43:51;7.32;;;4.40;;
42616;SDS011;28250;52.320;0.360;2023-04-15T08:46:23;7.85;;;3.65;;
42616;SDS011;28250;52.320;0.360;2023-04-15T08:51:18;5.63;;;3.20;;
42616;SDS011;28250;52.320;0.360;2023-04-15T08:56:13;8.68;;;3.78;;
42616;SDS011;28250;52.320;0.360;2023-04-15T08:58:45;12.77;;;3.53;;
42616;SDS011;28250;52.320;0.360;2023-04-15T09:01:14;8.55;;;3.22;;
42616;SDS011;28250;52.320;0.360;2023-04-15T09:03:42;7.25;;;2.85;;
42616;SDS011;28250;52.320;0.360;2023-04-15T09:06:10;7.07;;;3.85;;
42616;SDS011;28250;52.320;0.360;2023-04-15T09:11:04;7.53;;;3.42;;
42616;SDS011;28250;52.320;0.360;2023-04-15T09:13:32;9.10;;;3.42;;
42616;SDS011;28250;52.320;0.360;2023-04-15T09:16:02;14.10;;;3.75;;
42616;SDS011;28250;52.320;0.360;2023-04-15T09:18:32;8.23;;;3.28;;
42616;SDS011;28250;52.320;0.360;2023-04-15T09:21:04;9.60;;;3.78;;
42616;SDS011;28250;52.320;0.360;2023-04-15T09:23:37;15.57;;;3.97;;
42616;SDS011;28250;52.320;0.360;2023-04-15T09:26:07;8.63;;;3.53;;
42616;SDS011;28250;52.320;0.360;2023-04-15T09:28:40;6.88;;;4.05;;
42616;SDS011;28250;52.320;0.360;2023-04-15T09:31:08;6.10;;;3.28;;
42616;SDS011;28250;52.320;0.360;2023-04-15T09:36:20;4.75;;;3.38;;
42616;SDS011;28250;52.320;0.360;2023-04-15T09:38:54;7.10;;;3.20;;
42616;SDS011;28250;52.320;0.360;2023-04-15T09:41:23;10.32;;;3.58;;
42616;SDS011;28250;52.320;0.360;2023-04-15T09:43:53;6.72;;;3.30;;
42616;SDS011;28250;52.320;0.360;2023-04-15T09:49:08;6.82;;;3.15;;
42616;SDS011;28250;52.320;0.360;2023-04-15T09:51:37;11.52;;;3.15;;
42616;SDS011;28250;52.320;0.360;2023-04-15T09:54:04;10.15;;;3.90;;
42616;SDS011;28250;52.320;0.360;2023-04-15T09:56:36;7.93;;;3.65;;
42616;SDS011;28250;52.320;0.360;2023-04-15T09:59:07;11.50;;;3.78;;
42616;SDS011;28250;52.320;0.360;2023-04-15T10:01:35;10.18;;;3.67;;
42616;SDS011;28250;52.320;0.360;2023-04-15T10:04:03;10.88;;;3.47;;
42616;SDS011;28250;52.320;0.360;2023-04-15T10:06:31;9.07;;;3.38;;
42616;SDS011;28250;52.320;0.360;2023-04-15T10:09:00;11.85;;;3.75;;
42616;SDS011;28250;52.320;0.360;2023-04-15T10:13:56;11.40;;;3.17;;
42616;SDS011;28250;52.320;0.360;2023-04-15T10:16:25;11.55;;;3.30;;
42616;SDS011;28250;52.320;0.360;2023-04-15T10:18:57;11.88;;;4.38;;
42616;SDS011;28250;52.320;0.360;2023-04-15T10:21:29;8.43;;;3.47;;
42616;SDS011;28250;52.320;0.360;2023-04-15T10:23:57;11.93;;;3.90;;
42616;SDS011;28250;52.320;0.360;2023-04-15T10:26:27;11.45;;;4.00;;
42616;SDS011;28250;52.320;0.360;2023-04-15T10:28:54;9.52;;;3.55;;
42616;SDS011;28250;52.320;0.360;2023-04-15T10:33:49;11.57;;;3.90;;
42616;SDS011;28250;52.320;0.360;2023-04-15T10:36:17;13.70;;;4.07;;
42616;SDS011;28250;52.320;0.360;2023-04-15T10:38:46;5.65;;;3.28;;
42616;SDS011;28250;52.320;0.360;2023-04-15T10:41:17;9.40;;;3.63;;
42616;SDS011;28250;52.320;0.360;2023-04-15T10:43:51;8.43;;;3.28;;
42616;SDS011;28250;52.320;0.360;2023-04-15T10:49:12;13.80;;;3.50;;
42616;SDS011;28250;52.320;0.360;2023-04-15T10:51:43;8.45;;;4.10;;
42616;SDS011;28250;52.320;0.360;2023-04-15T10:54:13;9.52;;;3.58;;
42616;SDS011;28250;52.320;0.360;2023-04-15T11:02:39;7.28;;;2.85;;
42616;SDS011;28250;52.320;0.360;2023-04-15T11:05:49;9.88;;;4.20;;
42616;SDS011;28250;52.320;0.360;2023-04-15T11:08:18;10.30;;;2.88;;
42616;SDS011;28250;52.320;0.360;2023-04-15T11:13:14;8.70;;;3.50;;
42616;SDS011;28250;52.320;0.360;2023-04-15T11:15:44;10.02;;;3.72;;
42616;SDS011;28250;52.320;0.360;2023-04-15T11:18:16;7.60;;;3.08;;
42616;SDS011;28250;52.320;0.360;2023-04-15T11:20:52;7.30;;;3.05;;
42616;SDS011;28250;52.320;0.360;2023-04-15T11:23:29;12.63;;;3.20;;
42616;SDS011;28250;52.320;0.360;2023-04-15T11:28:32;7.40;;;2.90;;
42616;SDS011;28250;52.320;0.360;2023-04-15T11:31:13;5.93;;;3.28;;
42616;SDS011;28250;52.320;0.360;2023-04-15T11:33:58;9.82;;;3.85;;
42616;SDS011;28250;52.320;0.360;2023-04-15T11:36:28;12.32;;;3.85;;
42616;SDS011;28250;52.320;0.360;2023-04-15T11:38:57;8.80;;;3.05;;
42616;SDS011;28250;52.320;0.360;2023-04-15T11:41:25;6.47;;;3.83;;
42616;SDS011;28250;52.320;0.360;2023-04-15T11:48:48;9.70;;;3.83;;
42616;SDS011;28250;52.320;0.360;2023-04-15T11:51:15;14.88;;;4.20;;
42616;SDS011;28250;52.320;0.360;2023-04-15T11:53:45;11.65;;;3.53;;
42616;SDS011;28250;52.320;0.360;2023-04-15T11:56:18;17.55;;;4.97;;
42616;SDS011;28250;52.320;0.360;2023-04-15T11:58:52;9.52;;;4.45;;
42616;SDS011;28250;52.320;0.360;2023-04-15T12:04:14;8.63;;;3.65;;
42616;SDS011;28250;52.320;0.360;2023-04-15T12:06:44;12.60;;;4.28;;
42616;SDS011;28250;52.320;0.360;2023-04-15T12:11:42;11.15;;;4.40;;
42616;SDS011;28250;52.320;0.360;2023-04-15T12:17:05;11.95;;;4.85;;
42616;SDS011;28250;52.320;0.360;2023-04-15T12:19:35;14.05;;;4.57;;
42616;SDS011;28250;52.320;0.360;2023-04-15T12:22:04;11.93;;;4.88;;
42616;SDS011;28250;52.320;0.360;2023-04-15T12:24:34;8.85;;;4.32;;
42616;SDS011;28250;52.320;0.360;2023-04-15T12:27:05;12.48;;;5.13;;
42616;SDS011;28250;52.320;0.360;2023-04-15T12:29:34;11.73;;;4.80;;
42616;SDS011;28250;52.320;0.360;2023-04-15T12:37:18;19.40;;;5.65;;
42616;SDS011;28250;52.320;0.360;2023-04-15T12:39:46;15.18;;;5.60;;
42616;SDS011;28250;52.320;0.360;2023-04-15T12:42:14;13.07;;;4.88;;
42616;SDS011;28250;52.320;0.360;2023-04-15T12:44:41;6.68;;;4.13;;
42616;SDS011;28250;52.320;0.360;2023-04-15T12:47:09;12.60;;;4.83;;
42616;SDS011;28250;52.320;0.360;2023-04-15T12:49:36;9.60;;;4.97;;
42616;SDS011;28250;52.320;0.360;2023-04-15T12:52:03;13.77;;;5.35;;
42616;SDS011;28250;52.320;0.360;2023-04-15T12:54:30;10.95;;;5.40;;
42616;SDS011;28250;52.320;0.360;2023-04-15T12:56:56;15.02;;;5.00;;
42616;SDS011;28250;52.320;0.360;2023-04-15T12:59:23;11.00;;;5.03;;
42616;SDS011;28250;52.320;0.360;2023-04-15T13:01:50;16.10;;;6.28;;
42616;SDS011;28250;52.320;0.360;2023-04-15T13:04:18;13.38;;;6.22;;
42616;SDS011;28250;52.320;0.360;2023-04-15T13:06:45;13.32;;;4.85;;
42616;SDS011;28250;52.320;0.360;2023-04-15T13:09:12;9.75;;;4.70;;
42616;SDS011;28250;52.320;0.360;2023-04-15T13:11:38;10.75;;;5.40;;
42616;SDS011;28250;52.320;0.360;2023-04-15T13:14:05;11.02;;;4.93;;
42616;SDS011;28250;52.320;0.360;2023-04-15T13:16:33;10.32;;;4.68;;
42616;SDS011;28250;52.320;0.360;2023-04-15T13:19:00;13.35;;;5.50;;
42616;SDS011;28250;52.320;0.360;2023-04-15T13:21:27;11.18;;;5.13;;
42616;SDS011;28250;52.320;0.360;2023-04-15T13:23:54;14.32;;;6.03;;
42616;SDS011;28250;52.320;0.360;2023-04-15T13:26:20;11.55;;;5.93;;
42616;SDS011;28250;52.320;0.360;2023-04-15T13:28:46;12.60;;;5.30;;
42616;SDS011;28250;52.320;0.360;2023-04-15T13:31:12;11.30;;;5.45;;
42616;SDS011;28250;52.320;0.360;2023-04-15T13:33:38;11.73;;;5.50;;
42616;SDS011;28250;52.320;0.360;2023-04-15T13:36:04;11.40;;;5.05;;
42616;SDS011;28250;52.320;0.360;2023-04-15T13:38:31;8.75;;;4.82;;
42616;SDS011;28250;52.320;0.360;2023-04-15T13:40:57;9.20;;;5.07;;
42616;SDS011;28250;52.320;0.360;2023-04-15T13:43:23;10.80;;;5.30;;
42616;SDS011;28250;52.320;0.360;2023-04-15T13:45:49;13.93;;;5.22;;
42616;SDS011;28250;52.320;0.360;2023-04-15T13:48:15;11.65;;;5.40;;
42616;SDS011;28250;52.320;0.360;2023-04-15T13:50:41;10.25;;;5.25;;
42616;SDS011;28250;52.320;0.360;2023-04-15T13:53:10;10.27;;;4.80;;
42616;SDS011;28250;52.320;0.360;2023-04-15T13:55:37;9.90;;;4.65;;
42616;SDS011;28250;52.320;0.360;2023-04-15T13:58:06;10.63;;;5.65;;
42616;SDS011;28250;52.320;0.360;2023-04-15T14:00:35;10.32;;;5.35;;
42616;SDS011;28250;52.320;0.360;2023-04-15T14:03:02;10.70;;;5.50;;
42616;SDS011;28250;52.320;0.360;2023-04-15T14:05:29;10.32;;;5.25;;
42616;SDS011;28250;52.320;0.360;2023-04-15T14:07:55;9.38;;;4.90;;
42616;SDS011;28250;52.320;0.360;2023-04-15T14:10:21;13.25;;;5.68;;
42616;SDS011;28250;52.320;0.360;2023-04-15T14:12:47;20.58;;;6.65;;
42616;SDS011;28250;52.320;0.360;2023-04-15T14:15:13;17.48;;;6.75;;
42616;SDS011;28250;52.320;0.360;2023-04-15T14:17:39;12.05;;;6.22;;
42616;SDS011;28250;52.320;0.360;2023-04-15T14:20:07;11.63;;;5.65;;
42616;SDS011;28250;52.320;0.360;2023-04-15T14:22:33;8.65;;;5.60;;
42616;SDS011;28250;52.320;0.360;2023-04-15T14:25:00;13.35;;;6.22;;
42616;SDS011;28250;52.320;0.360;2023-04-15T14:27:26;11.55;;;6.80;;
42616;SDS011;28250;52.320;0.360;2023-04-15T14:29:52;14.02;;;6.68;;
42616;SDS011;28250;52.320;0.360;2023-04-15T14:32:19;11.23;;;7.18;;
42616;SDS011;28250;52.320;0.360;2023-04-15T14:34:45;13.68;;;7.05;;
42616;SDS011;28250;52.320;0.360;2023-04-15T14:37:11;14.85;;;6.45;;
42616;SDS011;28250;52.320;0.360;2023-04-15T14:39:37;14.52;;;6.53;;
42616;SDS011;28250;52.320;0.360;2023-04-15T14:42:03;10.35;;;6.05;;
42616;SDS011;28250;52.320;0.360;2023-04-15T14:44:30;13.00;;;6.82;;
42616;SDS011;28250;52.320;0.360;2023-04-15T14:46:56;10.48;;;6.43;;
42616;SDS011;28250;52.320;0.360;2023-04-15T14:49:22;10.02;;;6.30;;
42616;SDS011;28250;52.320;0.360;2023-04-15T14:51:48;9.05;;;5.95;;
42616;SDS011;28250;52.320;0.360;2023-04-15T14:54:14;9.27;;;5.18;;
42616;SDS011;28250;52.320;0.360;2023-04-15T14:56:40;6.78;;;5.35;;
42616;SDS011;28250;52.320;0.360;2023-04-15T14:59:06;10.68;;;6.30;;
42616;SDS011;28250;52.320;0.360;2023-04-15T15:01:32;10.00;;;6.65;;
42616;SDS011;28250;52.320;0.360;2023-04-15T15:03:58;9.80;;;6.47;;
42616;SDS011;28250;52.320;0.360;2023-04-15T15:06:25;12.93;;;6.72;;
42616;SDS011;28250;52.320;0.360;2023-04-15T15:08:51;11.48;;;6.47;;
42616;SDS011;28250;52.320;0.360;2023-04-15T15:11:17;8.95;;;5.88;;
42616;SDS011;28250;52.320;0.360;2023-04-15T15:13:43;7.88;;;6.18;;
42616;SDS011;28250;52.320;0.360;2023-04-15T15:16:09;9.02;;;5.95;;
42616;SDS011;28250;52.320;0.360;2023-04-15T15:18:35;9.90;;;6.63;;
42616;SDS011;28250;52.320;0.360;2023-04-15T15:21:01;12.55;;;6.95;;
42616;SDS011;28250;52.320;0.360;2023-04-15T15:23:27;16.75;;;10.02;;
42616;SDS011;28250;52.320;0.360;2023-04-15T15:25:53;13.50;;;7.90;;
42616;SDS011;28250;52.320;0.360;2023-04-15T15:28:19;12.63;;;7.88;;
42616;SDS011;28250;52.320;0.360;2023-04-15T15:30:46;11.07;;;7.65;;
42616;SDS011;28250;52.320;0.360;2023-04-15T15:33:12;11.82;;;7.45;;
42616;SDS011;28250;52.320;0.360;2023-04-15T15:35:38;10.75;;;7.35;;
42616;SDS011;28250;52.320;0.360;2023-04-15T15:38:05;10.30;;;7.17;;
42616;SDS011;28250;52.320;0.360;2023-04-15T15:40:31;10.07;;;7.03;;
42616;SDS011;28250;52.320;0.360;2023-04-15T15:42:57;13.35;;;6.88;;
42616;SDS011;28250;52.320;0.360;2023-04-15T15:45:23;17.00;;;7.45;;
42616;SDS011;28250;52.320;0.360;2023-04-15T15:47:49;13.23;;;7.88;;
42616;SDS011;28250;52.320;0.360;2023-04-15T15:50:16;10.82;;;6.88;;
42616;SDS011;28250;52.320;0.360;2023-04-15T15:52:42;15.48;;;9.00;;